Edenderry, Ireland
Current Conditions -  °F | °C
As of 6:00 PM on Friday 21 Nov 2014 (Local Time) from EIME Reporting Station
Broken Clouds Broken Clouds  
Wind Chill: 11°   Ceiling: 2000
Heat Index: 11°   Visibility: 6mi
Dew Point: 10°   Wind: 8mph
Humidity: 94%   Direction: 80°E
Pressure: 29.68"   Gusts: NA
Location:  53.34°N, 7.05°W
Report Text: EIME 211800Z 08007KT 9999 SCT010 BKN020 11/10 Q1005
Loading
Personal Weather Stations






























Interactive Weather Map New forecast layout! Learn more

10-Day Weather Forecast

Advertisements
Track Severe Weather on mobile